createdAt,value
2023-02-05T16:58:52.840Z,72.14
2023-02-05T16:59:52.811Z,71.19
2023-02-05T17:00:52.801Z,69.96
2023-02-05T17:01:52.788Z,70.16
2023-02-05T17:02:52.780Z,0
2023-02-05T17:03:52.766Z,70.67
2023-02-05T17:04:52.753Z,70.91
2023-02-05T17:05:52.753Z,70.57
2023-02-05T17:06:52.736Z,69.62
2023-02-05T17:07:52.732Z,70.06
2023-02-05T17:08:52.717Z,69.42
2023-02-05T17:09:52.706Z,69.93
2023-02-05T17:10:52.694Z,69.96
2023-02-05T17:11:52.680Z,71.22
2023-02-05T17:12:52.684Z,71.22
2023-02-05T17:13:52.676Z,71.22
2023-02-05T17:14:52.669Z,70.88
2023-02-05T17:15:52.643Z,70.23
2023-02-05T17:16:52.626Z,0
2023-02-05T17:17:52.638Z,71.15
2023-02-05T17:18:52.609Z,71.66
2023-02-05T17:19:52.627Z,72.52
2023-02-05T17:20:52.586Z,72.04
2023-02-05T17:21:52.599Z,71.29
2023-02-05T17:22:52.590Z,70.84
2023-02-05T17:23:52.557Z,70.23
2023-02-05T17:24:52.548Z,69.93
2023-02-05T17:25:52.536Z,69.52
2023-02-05T17:26:52.523Z,69.75
2023-02-05T17:27:52.588Z,69.45
2023-02-05T17:28:52.508Z,70.29
2023-02-05T17:29:52.496Z,70.57
2023-02-05T17:30:52.493Z,70.06
2023-02-05T17:31:52.475Z,70.61
2023-02-05T17:32:52.464Z,70.71
2023-02-05T17:33:52.450Z,70.61
2023-02-05T17:34:52.445Z,70.29
2023-02-05T17:35:52.431Z,71.04
2023-02-05T17:36:52.540Z,70.91
2023-02-05T17:37:52.407Z,71.56
2023-02-05T17:38:52.415Z,71.15
2023-02-05T17:39:52.387Z,0
2023-02-05T17:40:52.390Z,0
2023-02-05T17:41:52.371Z,0
2023-02-05T17:42:52.370Z,0
2023-02-05T17:43:52.348Z,0
2023-02-05T17:44:52.351Z,0
2023-02-05T17:45:52.331Z,0
2023-02-05T17:46:52.321Z,0
2023-02-05T17:47:52.309Z,0
2023-02-05T17:48:52.290Z,0
2023-02-05T17:49:52.314Z,0
2023-02-05T17:50:52.291Z,0
2023-02-05T17:51:52.259Z,0
2023-02-05T17:52:52.252Z,0
2023-02-05T17:53:52.250Z,82
2023-02-05T17:54:52.230Z,0
2023-02-05T17:55:52.217Z,0
2023-02-05T17:56:52.206Z,81.01
2023-02-05T17:57:52.197Z,79.6
2023-02-05T17:58:52.189Z,77.47
2023-02-05T17:59:52.207Z,76.58
2023-02-05T18:00:52.261Z,75.31
2023-02-05T18:01:53.154Z,74.08
2023-02-05T18:02:52.143Z,73.64
2023-02-05T18:03:52.144Z,72.99
2023-02-05T18:04:52.132Z,72.75
2023-02-05T18:05:52.116Z,71.29
2023-02-05T18:06:52.124Z,71.39
2023-02-05T18:07:52.095Z,70.88
2023-02-05T18:08:52.082Z,71.08
2023-02-05T18:09:52.078Z,70.95
2023-02-05T18:10:52.060Z,70.98
2023-02-05T18:11:52.074Z,71.53
2023-02-05T18:12:52.050Z,71.36
2023-02-05T18:13:52.048Z,71.83
2023-02-05T18:14:52.036Z,71.7
2023-02-05T18:15:52.051Z,71.08
2023-02-05T18:16:52.007Z,70.75
2023-02-05T18:17:51.987Z,70.13
2023-02-05T18:18:51.980Z,70.03
2023-02-05T18:19:51.984Z,69.89
2023-02-05T18:20:51.967Z,69.62
2023-02-05T18:21:51.948Z,69.72
2023-02-05T18:22:51.937Z,69.59
2023-02-05T18:23:51.942Z,0
2023-02-05T18:24:51.915Z,68.4
2023-02-05T18:25:51.947Z,68.09
2023-02-05T18:26:52.463Z,68.26
2023-02-05T18:27:51.883Z,69.07
2023-02-05T18:28:51.881Z,68.84
2023-02-05T18:29:51.866Z,68.63
2023-02-05T18:30:51.852Z,68.74
2023-02-05T18:31:51.852Z,68.77
2023-02-05T18:32:51.837Z,68.97
2023-02-05T18:33:51.824Z,68.57
2023-02-05T18:34:51.818Z,69.04
2023-02-05T18:35:51.799Z,69.31
2023-02-05T18:36:51.790Z,68.63
2023-02-05T18:37:51.776Z,68.49
2023-02-05T18:38:51.767Z,69.04
2023-02-05T18:39:51.827Z,69.45
2023-02-05T18:40:51.755Z,69.62
2023-02-05T18:41:51.777Z,68.63
2023-02-05T18:42:51.728Z,69.04
2023-02-05T18:43:51.711Z,68.87
2023-02-05T18:44:51.708Z,69.85
2023-02-05T18:45:51.725Z,70.77
2023-02-05T18:46:51.696Z,70.94
2023-02-05T18:47:51.676Z,71.12
2023-02-05T18:48:51.671Z,70.78
2023-02-05T18:49:51.654Z,70.06
2023-02-05T18:50:51.636Z,69.58
2023-02-05T18:51:51.628Z,69.75
2023-02-05T18:52:51.619Z,71.08
2023-02-05T18:53:51.607Z,71.77
2023-02-05T18:54:51.604Z,71.12
2023-02-05T18:55:51.592Z,70.67
2023-02-05T18:56:51.588Z,70.5
2023-02-05T18:57:51.573Z,0
2023-02-05T18:58:51.553Z,0
2023-02-05T18:59:51.555Z,0
2023-02-05T19:00:51.533Z,0
2023-02-05T19:01:51.527Z,0
2023-02-05T19:02:51.515Z,0
2023-02-05T19:03:51.509Z,0
2023-02-05T19:04:51.491Z,0
2023-02-05T19:05:51.495Z,0
2023-02-05T19:06:51.486Z,0
2023-02-05T19:07:51.473Z,0
2023-02-05T19:08:51.454Z,0
2023-02-05T19:09:51.442Z,0
2023-02-05T19:10:51.466Z,0
2023-02-05T19:11:51.424Z,0
2023-02-05T19:12:51.424Z,0
2023-02-05T19:13:51.411Z,0
2023-02-05T19:14:51.422Z,0
2023-02-05T19:15:51.374Z,0
2023-02-05T19:16:51.371Z,0
2023-02-05T19:17:51.354Z,0
2023-02-05T19:18:51.344Z,0
2023-02-05T19:19:51.338Z,0
2023-02-05T19:20:51.327Z,0
2023-02-05T19:21:51.331Z,0
2023-02-05T19:22:51.307Z,0
2023-02-05T19:23:51.294Z,0
2023-02-05T19:24:51.279Z,0
2023-02-05T19:25:51.284Z,0
2023-02-05T19:26:51.265Z,0
2023-02-05T19:27:51.248Z,0
2023-02-05T19:28:51.259Z,0
2023-02-05T19:29:51.225Z,0
2023-02-05T19:30:51.226Z,0
2023-02-05T19:31:51.217Z,0
2023-02-05T19:32:51.203Z,0
2023-02-05T19:33:51.188Z,0
2023-02-05T19:34:51.186Z,0
2023-02-05T19:35:51.171Z,0
2023-02-05T19:36:51.155Z,0
2023-02-05T19:37:51.153Z,0
2023-02-05T19:38:51.133Z,0
2023-02-05T19:39:51.121Z,0
2023-02-05T19:40:51.114Z,0
2023-02-05T19:41:51.109Z,0
2023-02-05T19:42:51.106Z,0
2023-02-05T19:43:51.114Z,79.15
2023-02-05T19:44:51.073Z,76.65
2023-02-05T19:45:51.066Z,73.68
2023-02-05T19:46:51.055Z,71.8
2023-02-05T19:47:51.040Z,70.47
2023-02-05T19:48:51.033Z,69.75
2023-02-05T19:49:51.018Z,69.85
2023-02-05T19:50:51.010Z,70.77
2023-02-05T19:51:51.005Z,71.04
2023-02-05T19:52:50.993Z,70.71
2023-02-05T19:53:50.980Z,70.37
2023-02-05T19:54:50.970Z,69.14
2023-02-05T19:55:50.957Z,69.24
2023-02-05T19:56:50.945Z,0
2023-02-05T19:57:50.935Z,72
2023-02-05T19:58:50.926Z,71.15
2023-02-05T19:59:50.915Z,71.08
2023-02-05T20:00:50.906Z,70.71
2023-02-05T20:01:50.908Z,70.5
2023-02-05T20:02:50.908Z,70.16
2023-02-05T20:03:50.873Z,69.68
2023-02-05T20:04:50.868Z,70.33
2023-02-05T20:05:50.887Z,70.94
2023-02-05T20:06:50.843Z,70.36
2023-02-05T20:07:50.842Z,71.62
2023-02-05T20:08:50.847Z,71.25
2023-02-05T20:09:50.817Z,71.42
2023-02-05T20:10:50.801Z,71.62
2023-02-05T20:11:50.828Z,71.28
2023-02-05T20:12:50.777Z,0
2023-02-05T20:13:50.786Z,0
2023-02-05T20:14:50.760Z,74.57
2023-02-05T20:15:50.747Z,74.84
2023-02-05T20:16:50.740Z,73.85
2023-02-05T20:17:50.769Z,73.1
2023-02-05T20:18:50.715Z,72.24
2023-02-05T20:19:50.704Z,71.93
2023-02-05T20:20:50.694Z,0
2023-02-05T20:21:50.690Z,70.74
2023-02-05T20:22:50.671Z,70.4
2023-02-05T20:23:50.666Z,70.06
2023-02-05T20:24:50.683Z,69.99
2023-02-05T20:25:50.647Z,70.03
2023-02-05T20:26:50.634Z,69.07
2023-02-05T20:27:50.630Z,68.46
2023-02-05T20:28:50.609Z,68.6
2023-02-05T20:29:50.599Z,69.45
2023-02-05T20:30:50.589Z,70.23
2023-02-05T20:31:50.581Z,70.36
2023-02-05T20:32:50.564Z,71.73
2023-02-05T20:33:50.572Z,72.58
2023-02-05T20:34:50.543Z,0
2023-02-05T20:35:50.554Z,72.24
2023-02-05T20:36:50.538Z,71.59
2023-02-05T20:37:50.527Z,70.33
2023-02-05T20:38:50.510Z,70.57
2023-02-05T20:39:50.512Z,70.77
2023-02-05T20:40:50.488Z,70.98
2023-02-05T20:41:50.530Z,70.91
2023-02-05T20:42:50.479Z,70.2
2023-02-05T20:43:50.451Z,69.99
2023-02-05T20:44:50.445Z,69.38
2023-02-05T20:45:50.440Z,0
2023-02-05T20:46:50.421Z,0
2023-02-05T20:47:50.499Z,0
2023-02-05T20:48:50.403Z,0
2023-02-05T20:49:50.392Z,0
2023-02-05T20:50:50.378Z,0
2023-02-05T20:51:50.365Z,0
2023-02-05T20:52:50.361Z,0
2023-02-05T20:53:50.347Z,0
2023-02-05T20:54:50.338Z,0
2023-02-05T20:55:50.327Z,0
2023-02-05T20:56:50.336Z,0
2023-02-05T20:57:50.326Z,0
2023-02-05T20:58:50.293Z,0
2023-02-05T20:59:50.289Z,80.47
2023-02-05T21:00:50.273Z,77.98
2023-02-05T21:01:50.267Z,74.8
2023-02-05T21:02:50.257Z,72.41
2023-02-05T21:03:50.247Z,0
2023-02-05T21:04:50.232Z,0
2023-02-05T21:05:50.225Z,0
2023-02-05T21:06:50.204Z,0
2023-02-05T21:07:50.205Z,76.93
2023-02-05T21:08:50.232Z,74.32
2023-02-05T21:09:50.179Z,71.77
2023-02-05T21:10:50.181Z,69.82
2023-02-05T21:11:50.163Z,69.48
2023-02-05T21:12:50.171Z,69.04
2023-02-05T21:13:50.134Z,68.97
2023-02-05T21:14:50.145Z,69.31
2023-02-05T21:15:50.113Z,69.27
2023-02-05T21:16:50.103Z,68.97
2023-02-05T21:17:50.097Z,68.42
2023-02-05T21:18:50.097Z,68.08
2023-02-05T21:19:50.073Z,66.59
2023-02-05T21:20:50.069Z,66.39
2023-02-05T21:21:50.051Z,65.16
2023-02-05T21:22:50.067Z,66.38
2023-02-05T21:23:50.031Z,67.84
2023-02-05T21:24:50.017Z,68.05
2023-02-05T21:25:50.019Z,68.15
2023-02-05T21:26:50.017Z,67.77
2023-02-05T21:27:49.986Z,0
2023-02-05T21:28:49.978Z,69.27
2023-02-05T21:29:49.970Z,0
2023-02-05T21:30:49.964Z,0
2023-02-05T21:31:50.942Z,0
2023-02-05T21:32:49.946Z,0
2023-02-05T21:33:49.922Z,0
2023-02-05T21:34:49.921Z,0
2023-02-05T21:35:49.907Z,0
2023-02-05T21:36:49.888Z,0
2023-02-05T21:37:49.890Z,0
2023-02-05T21:38:49.877Z,0
2023-02-05T21:39:49.862Z,0
2023-02-05T21:40:49.850Z,0
2023-02-05T21:41:49.885Z,0
2023-02-05T21:42:49.833Z,0
2023-02-05T21:43:49.838Z,76.86
2023-02-05T21:44:49.818Z,0
2023-02-05T21:45:49.801Z,0
2023-02-05T21:46:49.798Z,0
2023-02-05T21:47:49.790Z,0
2023-02-05T21:48:49.775Z,0
2023-02-05T21:49:49.777Z,0
2023-02-05T21:50:49.743Z,77.96
2023-02-05T21:51:49.742Z,75.73
2023-02-05T21:52:49.722Z,72.65
2023-02-05T21:53:49.737Z,71.11
2023-02-05T21:54:49.717Z,70.19
2023-02-05T21:55:49.693Z,69.85
2023-02-05T21:56:49.703Z,69.41
2023-02-05T21:57:49.669Z,68.76
2023-02-05T21:58:49.666Z,68.22
2023-02-05T21:59:49.665Z,67.4
2023-02-05T22:00:49.637Z,68.08
2023-02-05T22:01:49.631Z,68.28
2023-02-05T22:02:49.625Z,68.46
2023-02-05T22:03:49.617Z,68.05
2023-02-05T22:04:49.604Z,67.4
2023-02-05T22:05:49.587Z,67.3
2023-02-05T22:06:49.581Z,67.64
2023-02-05T22:07:49.582Z,67.43
2023-02-05T22:08:49.561Z,67.74
2023-02-05T22:09:49.550Z,67.94
2023-02-05T22:10:49.555Z,68.05
2023-02-05T22:11:49.531Z,67.64
2023-02-05T22:12:49.540Z,67.77
2023-02-05T22:13:49.525Z,68.15
2023-02-05T22:14:49.492Z,67.4
2023-02-05T22:15:49.488Z,67.16
2023-02-05T22:16:49.505Z,66.55
2023-02-05T22:17:49.469Z,66.52
2023-02-05T22:18:49.473Z,66.01
2023-02-05T22:19:49.467Z,65.8
2023-02-05T22:20:49.427Z,0
2023-02-05T22:21:49.425Z,0
2023-02-05T22:22:49.412Z,0
2023-02-05T22:23:49.399Z,0
2023-02-05T22:24:49.395Z,0
2023-02-05T22:25:49.391Z,0
2023-02-05T22:26:49.366Z,0
2023-02-05T22:27:49.359Z,0
2023-02-05T22:28:49.357Z,0
2023-02-05T22:29:49.347Z,0
2023-02-05T22:30:49.326Z,0
2023-02-05T22:31:49.365Z,0
2023-02-05T22:32:49.307Z,0
2023-02-05T22:33:49.431Z,0
2023-02-05T22:34:49.293Z,0
2023-02-05T22:35:49.300Z,0
2023-02-05T22:36:49.266Z,0
2023-02-05T22:37:49.276Z,0
2023-02-05T22:38:49.251Z,0
2023-02-05T22:39:49.236Z,0
2023-02-05T22:40:49.224Z,0
2023-02-05T22:41:49.209Z,0
2023-02-05T22:42:49.220Z,0
2023-02-05T22:43:49.185Z,0
2023-02-05T22:44:49.182Z,0
2023-02-05T22:45:49.174Z,0
2023-02-05T22:46:49.178Z,0
2023-02-05T22:47:49.149Z,79
2023-02-05T22:48:49.139Z,76.97
2023-02-05T22:49:49.156Z,74.26
2023-02-05T22:50:49.117Z,71.08
2023-02-05T22:51:49.130Z,0
2023-02-05T22:52:49.101Z,70.16
2023-02-05T22:53:49.093Z,68.01
2023-02-05T22:54:49.083Z,66.75
2023-02-05T22:55:49.062Z,65.94
2023-02-05T22:56:49.054Z,65.6
2023-02-05T22:57:49.037Z,64.65
2023-02-05T22:58:49.054Z,64.37
2023-02-05T22:59:49.025Z,64.58
2023-02-05T23:00:49.020Z,64.48
2023-02-05T23:01:49.027Z,64.24
2023-02-05T23:02:48.986Z,63.6
2023-02-05T23:03:48.990Z,63.96
2023-02-05T23:04:48.979Z,64.48
2023-02-05T23:05:48.963Z,64.14
2023-02-05T23:06:48.947Z,64.27
2023-02-05T23:07:48.963Z,64.17
2023-02-05T23:08:48.936Z,64.17
2023-02-05T23:09:48.918Z,64.61
2023-02-05T23:10:48.931Z,64.27
2023-02-05T23:11:48.900Z,64.2
2023-02-05T23:12:48.897Z,64.43
2023-02-05T23:13:48.877Z,64.74
2023-02-05T23:14:48.864Z,64.95
2023-02-05T23:15:48.854Z,0
2023-02-05T23:16:48.853Z,0
2023-02-05T23:17:48.827Z,0
2023-02-05T23:18:48.825Z,0
2023-02-05T23:19:48.810Z,0
2023-02-05T23:20:48.813Z,0
2023-02-05T23:21:48.805Z,0
2023-02-05T23:22:48.778Z,0
2023-02-05T23:23:48.762Z,0
2023-02-05T23:24:48.752Z,0
2023-02-05T23:25:48.751Z,76.62
2023-02-05T23:26:48.754Z,74.4
2023-02-05T23:27:48.718Z,71.62
2023-02-05T23:28:48.708Z,69.41
2023-02-05T23:29:48.702Z,0
2023-02-05T23:30:48.719Z,0
2023-02-05T23:31:48.683Z,0
2023-02-05T23:32:49.670Z,0
2023-02-05T23:33:48.657Z,0
2023-02-05T23:34:48.652Z,0
2023-02-05T23:35:48.631Z,0
2023-02-05T23:36:48.640Z,0
2023-02-05T23:37:48.636Z,0
2023-02-05T23:38:48.600Z,0
2023-02-05T23:39:48.656Z,0
2023-02-05T23:40:48.578Z,0
2023-02-05T23:41:48.566Z,0
2023-02-05T23:42:48.558Z,0
2023-02-05T23:43:48.551Z,0
2023-02-05T23:44:48.542Z,0
2023-02-05T23:45:48.541Z,0
2023-02-05T23:46:48.514Z,0
2023-02-05T23:47:48.511Z,0
2023-02-05T23:48:48.504Z,0
2023-02-05T23:49:48.481Z,0
2023-02-05T23:50:48.473Z,0
2023-02-05T23:51:48.467Z,0
2023-02-05T23:52:48.455Z,0
2023-02-05T23:53:48.440Z,0
2023-02-05T23:54:48.429Z,0
2023-02-05T23:55:48.432Z,0
2023-02-05T23:56:48.406Z,0
2023-02-05T23:57:48.399Z,0
2023-02-05T23:58:48.387Z,0
2023-02-05T23:59:48.382Z,0
